createdAt,value
2023-03-27T00:01:16.888Z,99519.94
2023-03-27T00:03:43.483Z,99530.78
2023-03-27T00:06:16.148Z,99540.53
2023-03-27T00:08:47.510Z,99526.31
2023-03-27T00:11:15.402Z,99537.25
2023-03-27T00:13:49.517Z,99535.19
2023-03-27T00:16:25.131Z,99554.69
2023-03-27T00:18:52.945Z,99553.97
2023-03-27T00:21:19.429Z,99555.94
2023-03-27T00:23:46.002Z,99556.75
2023-03-27T00:26:12.688Z,99566.31
2023-03-27T00:28:39.268Z,99578.41
2023-03-27T00:31:11.398Z,99587.44
2023-03-27T00:33:37.888Z,99600.56
2023-03-27T00:36:04.580Z,99602.38
2023-03-27T00:38:31.406Z,99611.25
2023-03-27T00:40:58.119Z,99634.13
2023-03-27T00:43:33.765Z,99623.63
2023-03-27T00:46:08.055Z,99634.97
2023-03-27T00:48:37.574Z,99648.59
2023-03-27T00:51:06.109Z,99665.75
2023-03-27T00:53:33.158Z,99678.28
2023-03-27T00:56:03.596Z,99684.69
2023-03-27T00:59:05.253Z,99694.97
2023-03-27T01:01:32.137Z,99685.56
2023-03-27T01:04:02.129Z,99703.31
2023-03-27T01:06:31.131Z,99707.59
2023-03-27T01:08:57.739Z,99711.13
2023-03-27T01:11:58.040Z,99730.25
2023-03-27T01:14:33.533Z,99738.63
2023-03-27T01:17:37.654Z,99738.41
2023-03-27T01:20:22.965Z,99746.50
2023-03-27T01:23:01.726Z,99744.88
2023-03-27T01:25:56.693Z,99750.75
2023-03-27T01:29:00.601Z,99752.03
2023-03-27T01:31:44.639Z,99756.56
2023-03-27T01:34:16.906Z,99762.88
2023-03-27T01:37:14.637Z,99761.09
2023-03-27T01:40:07.955Z,99778.06
2023-03-27T01:42:54.875Z,99779.81
2023-03-27T01:45:29.016Z,99795.78
2023-03-27T01:48:04.254Z,99799.69
2023-03-27T01:50:40.327Z,99797.09
2023-03-27T01:53:13.856Z,99804.38
2023-03-27T01:55:46.540Z,99816.88
2023-03-27T01:58:38.178Z,99828.94
2023-03-27T02:01:08.804Z,99829.22
2023-03-27T02:03:41.696Z,99833.59
2023-03-27T02:06:33.416Z,99826.34
2023-03-27T02:09:13.367Z,99834.13
2023-03-27T02:12:01.086Z,99826.47
2023-03-27T02:14:32.817Z,99843.81
2023-03-27T02:17:03.572Z,99854.56
2023-03-27T02:19:35.061Z,99857.91
2023-03-27T02:22:01.637Z,99857.34
2023-03-27T02:24:28.862Z,99863.25
2023-03-27T02:27:01.878Z,99872.28
2023-03-27T02:30:10.473Z,99871.16
2023-03-27T02:32:40.013Z,99880.00
2023-03-27T02:35:23.163Z,99884.53
2023-03-27T02:38:04.439Z,99882.91
2023-03-27T02:40:45.546Z,99880.09
2023-03-27T02:43:33.412Z,99888.25
2023-03-27T02:46:12.207Z,99894.25
2023-03-27T02:48:54.929Z,99906.50
2023-03-27T02:51:28.769Z,99913.91
2023-03-27T02:54:13.167Z,99919.91
2023-03-27T02:56:48.670Z,99927.75
2023-03-27T02:59:22.478Z,99937.47
2023-03-27T03:01:49.810Z,99951.28
2023-03-27T03:04:29.509Z,99955.75
2023-03-27T03:06:56.129Z,99957.56
2023-03-27T03:09:24.817Z,99953.97
2023-03-27T03:11:53.156Z,99957.56
2023-03-27T03:14:24.658Z,99968.31
2023-03-27T03:16:51.813Z,99966.41
2023-03-27T03:19:18.307Z,99971.53
2023-03-27T03:21:46.846Z,99983.84
2023-03-27T03:24:13.242Z,99986.53
2023-03-27T03:26:40.088Z,99996.25
2023-03-27T03:29:06.587Z,99999.00
2023-03-27T03:31:44.403Z,100006.78
2023-03-27T03:34:22.426Z,100019.81
2023-03-27T03:36:49.657Z,100026.06
2023-03-27T03:39:17.443Z,100032.25
2023-03-27T03:41:43.855Z,100029.28
2023-03-27T03:44:10.476Z,100042.75
2023-03-27T03:46:36.991Z,100049.06
2023-03-27T03:49:04.894Z,100055.34
2023-03-27T03:51:32.760Z,100060.56
2023-03-27T03:53:59.185Z,100058.69
2023-03-27T03:56:27.765Z,100065.94
2023-03-27T03:58:54.144Z,100069.34
2023-03-27T04:01:21.635Z,100075.44
2023-03-27T04:03:48.961Z,100087.75
2023-03-27T04:06:17.625Z,100085.13
2023-03-27T04:08:47.134Z,100092.16
2023-03-27T04:11:13.563Z,100098.31
2023-03-27T04:13:40.058Z,100098.47
2023-03-27T04:16:08.075Z,100100.91
2023-03-27T04:18:35.379Z,100115.94
2023-03-27T04:21:02.117Z,100108.00
2023-03-27T04:23:30.423Z,100119.44
2023-03-27T04:26:01.088Z,100128.22
2023-03-27T04:28:30.265Z,100132.59
2023-03-27T04:30:58.159Z,100142.31
2023-03-27T04:33:25.728Z,100149.25
2023-03-27T04:36:06.935Z,100160.63
2023-03-27T04:38:38.134Z,100158.84
2023-03-27T04:41:06.067Z,100167.63
2023-03-27T04:43:36.506Z,100167.66
2023-03-27T04:46:05.824Z,100178.22
2023-03-27T04:48:32.651Z,100182.50
2023-03-27T04:50:59.230Z,100187.78
2023-03-27T04:53:30.013Z,100187.84
2023-03-27T04:55:57.223Z,100188.66
2023-03-27T04:58:25.751Z,100198.34
2023-03-27T05:00:55.663Z,100207.06
2023-03-27T05:03:24.024Z,100211.53
2023-03-27T05:05:50.735Z,100215.03
2023-03-27T05:08:18.120Z,100222.00
2023-03-27T05:10:46.501Z,100223.78
2023-03-27T05:13:13.450Z,100222.97
2023-03-27T05:15:39.797Z,100235.28
2023-03-27T05:18:07.160Z,100234.38
2023-03-27T05:20:34.374Z,100246.66
2023-03-27T05:23:00.930Z,100242.28
2023-03-27T05:25:28.738Z,100247.53
2023-03-27T05:27:55.376Z,100252.75
2023-03-27T05:30:23.619Z,100258.00
2023-03-27T05:32:52.078Z,100272.03
2023-03-27T05:35:20.944Z,100276.38
2023-03-27T05:37:48.923Z,100281.69
2023-03-27T05:40:17.593Z,100274.63
2023-03-27T05:42:45.329Z,100289.53
2023-03-27T05:45:13.336Z,100289.47
2023-03-27T05:47:48.531Z,100297.47
2023-03-27T05:50:16.497Z,100294.81
2023-03-27T05:52:43.007Z,100300.88
2023-03-27T05:55:10.358Z,100304.31
2023-03-27T05:57:39.301Z,100324.47
2023-03-27T06:00:14.093Z,100324.53
2023-03-27T06:02:44.866Z,100327.88
2023-03-27T06:05:16.202Z,100337.59
2023-03-27T06:07:43.863Z,100334.91
2023-03-27T06:10:13.692Z,100340.91
2023-03-27T06:12:41.588Z,100348.88
2023-03-27T06:15:09.687Z,100355.13
2023-03-27T06:17:38.215Z,100358.50
2023-03-27T06:20:15.420Z,100360.19
2023-03-27T06:22:48.383Z,100367.13
2023-03-27T06:25:15.931Z,100375.94
2023-03-27T06:27:43.329Z,100373.38
2023-03-27T06:30:11.251Z,100376.03
2023-03-27T06:32:43.554Z,100383.78
2023-03-27T06:35:10.230Z,100384.34
2023-03-27T06:37:36.795Z,100389.78
2023-03-27T06:40:09.344Z,100397.75
2023-03-27T06:42:36.877Z,100397.63
2023-03-27T06:45:05.059Z,100404.75
2023-03-27T06:47:33.151Z,100409.03
2023-03-27T06:50:01.186Z,100410.66
2023-03-27T06:52:27.654Z,100414.34
2023-03-27T06:54:54.042Z,100419.56
2023-03-27T06:57:20.461Z,100417.47
2023-03-27T06:59:47.166Z,100429.97
2023-03-27T07:02:13.683Z,100432.44
2023-03-27T07:04:40.852Z,100437.78
2023-03-27T07:07:08.085Z,100447.56
2023-03-27T07:09:35.454Z,100452.88
2023-03-27T07:12:02.983Z,100453.63
2023-03-27T07:14:29.391Z,100461.50
2023-03-27T07:16:55.745Z,100466.13
2023-03-27T07:19:22.146Z,100467.81
2023-03-27T07:21:48.572Z,100474.63
2023-03-27T07:24:14.936Z,100482.63
2023-03-27T07:26:41.276Z,100478.13
2023-03-27T07:29:10.597Z,100492.97
2023-03-27T07:34:09.420Z,100490.34
2023-03-27T07:36:36.353Z,100495.56
2023-03-27T07:39:02.795Z,100494.78
2023-03-27T07:41:30.178Z,100501.75
2023-03-27T07:43:57.079Z,100505.31
2023-03-27T07:46:24.382Z,100503.59
2023-03-27T07:48:51.133Z,100507.19
2023-03-27T07:51:17.626Z,100506.41
2023-03-27T07:53:44.473Z,100516.00
2023-03-27T07:56:11.045Z,100516.91
2023-03-27T07:58:37.412Z,100524.97
2023-03-27T08:01:04.531Z,100520.47
2023-03-27T08:03:31.299Z,100527.38
2023-03-27T08:06:00.508Z,100523.66
2023-03-27T08:08:28.184Z,100517.63
2023-03-27T08:10:55.406Z,100526.06
2023-03-27T08:13:21.810Z,100526.16
2023-03-27T08:15:48.252Z,100525.09
2023-03-27T08:18:14.657Z,100532.00
2023-03-27T08:20:42.336Z,100536.47
2023-03-27T08:23:08.670Z,100533.63
2023-03-27T08:25:35.682Z,100540.47
2023-03-27T08:28:02.758Z,100545.13
2023-03-27T08:30:29.624Z,100557.44
2023-03-27T08:32:56.851Z,100560.97
2023-03-27T08:35:23.364Z,100563.78
2023-03-27T08:37:49.839Z,100563.22
2023-03-27T08:40:26.153Z,100560.69
2023-03-27T08:42:57.118Z,100564.03
2023-03-27T08:45:31.762Z,100570.28
2023-03-27T08:48:05.427Z,100568.41
2023-03-27T08:50:37.617Z,100575.50
2023-03-27T08:53:11.283Z,100568.25
2023-03-27T08:55:41.345Z,100566.63
2023-03-27T08:58:19.738Z,100562.94
2023-03-27T09:00:53.557Z,100571.03
2023-03-27T09:03:41.162Z,100584.31
2023-03-27T09:06:18.546Z,100584.19
2023-03-27T09:08:44.896Z,100585.03
2023-03-27T09:11:39.368Z,100585.59
2023-03-27T09:14:19.603Z,100590.38
2023-03-27T09:16:50.239Z,100578.09
2023-03-27T09:19:33.487Z,100579.63
2023-03-27T09:22:07.855Z,100579.75
2023-03-27T09:24:43.480Z,100577.81
2023-03-27T09:27:19.438Z,100577.47
2023-03-27T09:30:14.284Z,100590.63
2023-03-27T09:32:42.835Z,100582.09
2023-03-27T09:35:14.466Z,100589.66
2023-03-27T09:37:42.726Z,100588.56
2023-03-27T09:40:21.630Z,100594.03
2023-03-27T09:42:49.489Z,100587.22
2023-03-27T09:45:16.473Z,100601.31
2023-03-27T09:47:55.097Z,100602.41
2023-03-27T09:50:31.033Z,100620.44
2023-03-27T09:53:19.234Z,100632.31
2023-03-27T09:56:13.087Z,100639.84
2023-03-27T09:58:43.953Z,100646.31
2023-03-27T10:01:37.183Z,100648.19
2023-03-27T10:04:20.017Z,100649.13
2023-03-27T10:06:49.176Z,100649.81
2023-03-27T10:09:23.311Z,100645.16
2023-03-27T10:11:51.691Z,100649.38
2023-03-27T10:14:21.368Z,100652.03
2023-03-27T10:16:48.171Z,100654.28
2023-03-27T10:19:36.239Z,100646.38
2023-03-27T10:22:31.048Z,100649.13
2023-03-27T10:25:13.587Z,100654.47
2023-03-27T10:27:43.566Z,100649.03
2023-03-27T10:30:37.921Z,100643.41
2023-03-27T10:33:04.413Z,100644.28
2023-03-27T10:35:37.868Z,100647.84
2023-03-27T10:38:15.314Z,100638.69
2023-03-27T10:40:44.771Z,100640.41
2023-03-27T10:43:16.599Z,100631.00
2023-03-27T10:45:49.715Z,100637.75
2023-03-27T10:48:38.987Z,100630.31
2023-03-27T10:51:13.182Z,100624.97
2023-03-27T10:53:49.144Z,100624.56
2023-03-27T10:56:18.995Z,100625.00
2023-03-27T10:58:50.894Z,100625.56
2023-03-27T11:01:26.425Z,100620.91
2023-03-27T11:04:01.120Z,100627.72
2023-03-27T11:06:34.031Z,100633.50
2023-03-27T11:09:09.887Z,100641.41
2023-03-27T11:11:41.066Z,100643.38
2023-03-27T11:14:17.426Z,100643.63
2023-03-27T11:16:56.977Z,100646.38
2023-03-27T11:19:53.839Z,100642.69
2023-03-27T11:22:49.448Z,100652.78
2023-03-27T11:25:29.669Z,100660.28
2023-03-27T11:28:10.347Z,100665.59
2023-03-27T11:30:44.366Z,100662.47
2023-03-27T11:33:38.602Z,100658.47
2023-03-27T11:36:37.555Z,100664.50
2023-03-27T11:39:15.509Z,100660.06
2023-03-27T11:41:47.326Z,100651.88
2023-03-27T11:44:13.732Z,100651.44
2023-03-27T11:46:49.228Z,100646.53
2023-03-27T11:49:15.584Z,100652.16
2023-03-27T11:51:53.836Z,100652.78
2023-03-27T11:54:49.000Z,100656.22
2023-03-27T11:57:24.252Z,100647.69
2023-03-27T12:00:18.801Z,100653.91
2023-03-27T12:03:07.855Z,100643.78
2023-03-27T12:05:49.495Z,100643.69
2023-03-27T12:08:28.098Z,100654.69
2023-03-27T12:10:58.938Z,100641.69
2023-03-27T12:14:01.149Z,100653.16
2023-03-27T12:17:01.118Z,100654.50
2023-03-27T12:20:01.988Z,100697.47
2023-03-27T12:22:28.312Z,100691.44
2023-03-27T12:25:12.633Z,100696.41
2023-03-27T12:27:52.062Z,100700.31
2023-03-27T12:30:23.995Z,100686.38
2023-03-27T12:33:25.127Z,100696.09
2023-03-27T12:35:57.718Z,100689.03
2023-03-27T12:38:30.041Z,100690.72
2023-03-27T12:41:20.704Z,100683.88
2023-03-27T12:43:48.246Z,100703.88
2023-03-27T12:46:14.626Z,100699.28
2023-03-27T12:48:50.239Z,100704.41
2023-03-27T12:51:20.320Z,100693.81
2023-03-27T12:53:54.682Z,100698.78
2023-03-27T12:56:26.802Z,100700.41
2023-03-27T12:58:55.388Z,100703.59
2023-03-27T13:01:51.507Z,100695.25
2023-03-27T13:04:39.593Z,100695.16
2023-03-27T13:07:28.958Z,100678.38
2023-03-27T13:10:17.293Z,100685.88
2023-03-27T13:12:53.715Z,100687.34
2023-03-27T13:15:22.793Z,100679.28
2023-03-27T13:18:07.575Z,100679.78
2023-03-27T13:20:52.635Z,100676.47
2023-03-27T13:23:38.698Z,100676.44
2023-03-27T13:26:22.596Z,100677.63
2023-03-27T13:28:51.858Z,100678.94
2023-03-27T13:31:46.192Z,100676.88
2023-03-27T13:34:21.028Z,100671.78
2023-03-27T13:36:48.952Z,100684.16
2023-03-27T13:39:22.245Z,100686.31
2023-03-27T13:41:56.244Z,100669.66
2023-03-27T13:44:35.751Z,100661.16
2023-03-27T13:47:10.135Z,100658.16
2023-03-27T13:50:15.111Z,100656.31
2023-03-27T13:52:48.235Z,100662.69
2023-03-27T13:55:34.647Z,100669.84
2023-03-27T13:58:30.719Z,100672.19
2023-03-27T14:01:09.439Z,100669.50
2023-03-27T14:03:54.927Z,100663.47
2023-03-27T14:06:42.192Z,100663.28
2023-03-27T14:09:35.319Z,100659.47
2023-03-27T14:12:30.628Z,100662.03
2023-03-27T14:15:15.520Z,100654.66
2023-03-27T14:17:44.896Z,100649.63
2023-03-27T14:20:20.336Z,100658.06
2023-03-27T14:23:07.332Z,100663.53
2023-03-27T14:25:38.192Z,100655.78
2023-03-27T14:28:08.873Z,100661.91
2023-03-27T14:30:47.512Z,100670.84
2023-03-27T14:33:20.092Z,100671.00
2023-03-27T14:35:57.234Z,100668.06
2023-03-27T14:38:25.389Z,100670.09
2023-03-27T14:40:57.259Z,100667.03
2023-03-27T14:43:27.538Z,100675.41
2023-03-27T14:46:05.974Z,100674.34
2023-03-27T14:48:33.460Z,100679.50
2023-03-27T14:51:06.051Z,100673.56
2023-03-27T14:53:36.334Z,100674.63
2023-03-27T14:56:12.868Z,100682.25
2023-03-27T14:58:46.107Z,100677.69
2023-03-27T15:01:16.919Z,100678.47
2023-03-27T15:03:45.830Z,100681.00
2023-03-27T15:06:17.184Z,100677.44
2023-03-27T15:08:52.023Z,100677.44
2023-03-27T15:11:37.424Z,100684.94
2023-03-27T15:14:05.350Z,100677.66
2023-03-27T15:16:35.769Z,100691.22
2023-03-27T15:19:12.465Z,100695.16
2023-03-27T15:21:58.499Z,100693.72
2023-03-27T15:24:38.301Z,100717.53
2023-03-27T15:27:05.802Z,100741.09
2023-03-27T15:29:43.848Z,100730.59
2023-03-27T15:32:14.508Z,100740.41
2023-03-27T15:34:47.957Z,100751.91
2023-03-27T15:37:23.890Z,100751.41
2023-03-27T15:40:36.685Z,100756.56
2023-03-27T15:43:05.045Z,100767.09
2023-03-27T15:45:41.778Z,100768.84
2023-03-27T15:48:35.259Z,100766.22
2023-03-27T15:51:06.163Z,100779.56
2023-03-27T15:53:37.095Z,100779.41
2023-03-27T15:56:26.095Z,100781.97
2023-03-27T15:59:00.123Z,100780.13
2023-03-27T16:01:37.143Z,100780.31
2023-03-27T16:04:07.642Z,100782.78
2023-03-27T16:06:38.595Z,100782.09
2023-03-27T16:09:27.001Z,100795.28
2023-03-27T16:11:55.307Z,100789.13
2023-03-27T16:14:32.058Z,100789.16
2023-03-27T16:17:09.947Z,100788.16
2023-03-27T16:19:53.379Z,100794.22
2023-03-27T16:22:22.724Z,100797.72
2023-03-27T16:24:49.437Z,100803.09
2023-03-27T16:27:17.229Z,100817.53
2023-03-27T16:29:43.682Z,100848.00
2023-03-27T16:32:13.206Z,100859.81
2023-03-27T16:34:40.566Z,100867.94
2023-03-27T16:37:07.616Z,100882.13
2023-03-27T16:39:34.443Z,100879.47
2023-03-27T16:42:00.867Z,100890.94
2023-03-27T16:44:27.267Z,100900.63
2023-03-27T16:46:53.665Z,100902.34
2023-03-27T16:49:20.066Z,100891.81
2023-03-27T16:51:46.440Z,100868.94
2023-03-27T16:54:12.811Z,100870.75
2023-03-27T16:56:39.230Z,100861.91
2023-03-27T16:59:05.618Z,100872.44
2023-03-27T17:01:32.097Z,100883.00
2023-03-27T17:03:58.551Z,100876.78
2023-03-27T17:06:25.195Z,100880.34
2023-03-27T17:08:55.475Z,100884.63
2023-03-27T17:11:22.850Z,100882.09
2023-03-27T17:13:50.306Z,100886.53
2023-03-27T17:16:16.952Z,100886.53
2023-03-27T17:18:43.418Z,100888.22
2023-03-27T17:21:10.278Z,100885.47
2023-03-27T17:23:36.712Z,100891.81
2023-03-27T17:26:04.995Z,100892.69
2023-03-27T17:28:31.961Z,100890.97
2023-03-27T17:31:04.769Z,100898.88
2023-03-27T17:33:32.083Z,100902.41
2023-03-27T17:35:58.788Z,100906.78
2023-03-27T17:38:25.568Z,100907.69
2023-03-27T17:40:52.052Z,100917.34
2023-03-27T17:43:18.613Z,100921.75
2023-03-27T17:45:45.449Z,100918.22
2023-03-27T17:48:12.024Z,100927.81
2023-03-27T17:50:39.468Z,100939.28
2023-03-27T17:53:06.720Z,100944.53
2023-03-27T17:55:33.230Z,100941.88
2023-03-27T17:58:08.915Z,100943.59
2023-03-27T18:00:37.203Z,100955.84
2023-03-27T18:03:04.047Z,100951.47
2023-03-27T18:05:30.631Z,100953.22
2023-03-27T18:07:57.157Z,100962.75
2023-03-27T18:10:24.314Z,100961.81
2023-03-27T18:12:50.988Z,100970.53
2023-03-27T18:15:17.379Z,100965.97
2023-03-27T18:17:43.863Z,100972.97
2023-03-27T18:20:10.688Z,100972.06
2023-03-27T18:22:38.164Z,100975.50
2023-03-27T18:25:06.873Z,100977.28
2023-03-27T18:27:33.242Z,100972.75
2023-03-27T18:29:59.742Z,100988.38
2023-03-27T18:32:26.242Z,100996.16
2023-03-27T18:34:52.660Z,101003.09
2023-03-27T18:37:19.201Z,101004.81
2023-03-27T18:39:46.724Z,101009.31
2023-03-27T18:42:13.515Z,101015.47
2023-03-27T18:44:41.431Z,101013.13
2023-03-27T18:47:08.174Z,101006.97
2023-03-27T18:49:34.641Z,101012.31
2023-03-27T18:52:01.041Z,101009.66
2023-03-27T18:54:28.104Z,101005.34
2023-03-27T18:56:54.613Z,101010.59
2023-03-27T18:59:22.610Z,101015.09
2023-03-27T19:01:49.285Z,101009.81
2023-03-27T19:04:17.259Z,101009.91
2023-03-27T19:06:43.933Z,101013.44
2023-03-27T19:09:10.325Z,101010.72
2023-03-27T19:11:37.008Z,101011.47
2023-03-27T19:14:03.482Z,101013.25
2023-03-27T19:16:30.672Z,101009.56
2023-03-27T19:18:57.055Z,101018.38
2023-03-27T19:21:23.495Z,101016.38
2023-03-27T19:23:50.212Z,101020.22
2023-03-27T19:26:19.231Z,101025.22
2023-03-27T19:28:47.560Z,101024.59
2023-03-27T19:31:14.623Z,101027.75
2023-03-27T19:33:41.803Z,101031.50
2023-03-27T19:36:09.220Z,101029.47
2023-03-27T19:38:37.270Z,101037.50
2023-03-27T19:41:07.994Z,101042.03
2023-03-27T19:43:34.763Z,101040.16
2023-03-27T19:46:15.077Z,101040.03
2023-03-27T19:48:43.242Z,101045.28
2023-03-27T19:51:09.699Z,101047.88
2023-03-27T19:53:36.481Z,101048.13
2023-03-27T19:56:03.139Z,101057.59
2023-03-27T19:58:29.683Z,101052.56
2023-03-27T20:00:57.451Z,101059.56
2023-03-27T20:03:27.452Z,101062.03
2023-03-27T20:05:56.268Z,101056.78
2023-03-27T20:08:38.023Z,101062.81
2023-03-27T20:11:06.719Z,101061.06
2023-03-27T20:13:39.547Z,101067.16
2023-03-27T20:16:14.823Z,101081.97
2023-03-27T20:18:42.682Z,101078.94
2023-03-27T20:21:10.182Z,101076.28
2023-03-27T20:23:37.661Z,101076.13
2023-03-27T20:26:04.454Z,101081.94
2023-03-27T20:28:30.847Z,101082.41
2023-03-27T20:31:05.294Z,101089.91
2023-03-27T20:33:32.072Z,101090.31
2023-03-27T20:35:58.658Z,101093.06
2023-03-27T20:38:28.726Z,101098.41
2023-03-27T20:40:56.397Z,101090.38
2023-03-27T20:43:23.437Z,101095.50
2023-03-27T20:45:51.888Z,101099.66
2023-03-27T20:48:21.653Z,101086.59
2023-03-27T20:50:51.135Z,101101.63
2023-03-27T20:53:30.385Z,101095.75
2023-03-27T20:56:00.620Z,101090.09
2023-03-27T20:58:27.949Z,101088.44
2023-03-27T21:00:56.024Z,101084.09
2023-03-27T21:03:22.802Z,101089.19
2023-03-27T21:05:49.375Z,101087.31
2023-03-27T21:08:16.253Z,101097.03
2023-03-27T21:10:42.752Z,101094.59
2023-03-27T21:13:09.178Z,101096.50
2023-03-27T21:15:35.575Z,101096.16
2023-03-27T21:18:02.080Z,101105.03
2023-03-27T21:20:28.621Z,101097.09
2023-03-27T21:22:55.327Z,101103.84
2023-03-27T21:25:22.586Z,101102.66
2023-03-27T21:27:49.107Z,101100.25
2023-03-27T21:30:16.558Z,101104.44
2023-03-27T21:32:43.516Z,101107.41
2023-03-27T21:35:10.479Z,101109.00
2023-03-27T21:37:36.893Z,101111.00
2023-03-27T21:40:04.811Z,101107.28
2023-03-27T21:42:31.168Z,101114.00
2023-03-27T21:44:57.645Z,101107.72
2023-03-27T21:47:29.678Z,101114.53
2023-03-27T21:50:00.999Z,101122.28
2023-03-27T21:52:27.663Z,101120.22
2023-03-27T21:55:03.015Z,101126.19
2023-03-27T21:57:30.202Z,101119.09
2023-03-27T21:59:56.633Z,101126.06
2023-03-27T22:02:23.069Z,101131.84
2023-03-27T22:04:49.524Z,101133.56
2023-03-27T22:07:16.029Z,101133.19
2023-03-27T22:09:45.904Z,101137.63
2023-03-27T22:12:12.990Z,101135.94
2023-03-27T22:14:39.509Z,101144.78
2023-03-27T22:17:06.116Z,101148.66
2023-03-27T22:19:32.631Z,101139.63
2023-03-27T22:21:59.050Z,101141.03
2023-03-27T22:24:25.431Z,101145.59
2023-03-27T22:26:51.915Z,101147.41
2023-03-27T22:29:18.492Z,101153.06
2023-03-27T22:31:45.036Z,101150.44
2023-03-27T22:34:11.680Z,101156.31
2023-03-27T22:36:38.421Z,101153.06
2023-03-27T22:39:05.489Z,101166.47
2023-03-27T22:41:31.916Z,101164.16
2023-03-27T22:44:01.790Z,101163.81
2023-03-27T22:46:28.356Z,101169.63
2023-03-27T22:48:56.337Z,101174.50
2023-03-27T22:51:23.264Z,101172.31
2023-03-27T22:53:49.748Z,101174.72
2023-03-27T22:56:17.942Z,101177.69
2023-03-27T22:58:45.043Z,101181.78
2023-03-27T23:01:11.474Z,101180.78
2023-03-27T23:03:38.419Z,101182.88
2023-03-27T23:06:05.289Z,101181.22
2023-03-27T23:08:31.701Z,101187.63
2023-03-27T23:11:05.732Z,101188.00
2023-03-27T23:13:33.967Z,101191.59
2023-03-27T23:16:01.021Z,101188.75
2023-03-27T23:18:27.597Z,101193.63
2023-03-27T23:20:58.541Z,101196.53
2023-03-27T23:23:26.643Z,101201.94
2023-03-27T23:25:53.840Z,101204.66
2023-03-27T23:28:20.508Z,101202.69
2023-03-27T23:30:54.714Z,101209.34
2023-03-27T23:33:24.756Z,101208.72
2023-03-27T23:35:52.642Z,101212.00
2023-03-27T23:38:19.124Z,101221.81
2023-03-27T23:40:45.458Z,101223.56
2023-03-27T23:43:11.854Z,101231.09
2023-03-27T23:45:38.226Z,101226.75
2023-03-27T23:48:04.724Z,101225.75
2023-03-27T23:50:31.126Z,101229.09
2023-03-27T23:52:57.522Z,101230.66
2023-03-27T23:55:23.871Z,101229.19
2023-03-27T23:57:50.218Z,101240.50
